sensor_id;sensor_type;location;lat;lon;timestamp;temperature;humidity
52919;DHT22;38793;52.690;6.812;2023-04-19T00:00:38;9.70;99.90
52919;DHT22;38793;52.690;6.812;2023-04-19T00:03:05;9.60;99.90
52919;DHT22;38793;52.690;6.812;2023-04-19T00:05:31;9.70;99.90
52919;DHT22;38793;52.690;6.812;2023-04-19T00:07:57;9.60;99.90
52919;DHT22;38793;52.690;6.812;2023-04-19T00:10:23;9.70;99.90
52919;DHT22;38793;52.690;6.812;2023-04-19T00:12:48;9.70;99.90
52919;DHT22;38793;52.690;6.812;2023-04-19T00:15:14;9.60;99.90
52919;DHT22;38793;52.690;6.812;2023-04-19T00:17:40;9.70;99.90
52919;DHT22;38793;52.690;6.812;2023-04-19T00:20:06;9.60;99.90
52919;DHT22;38793;52.690;6.812;2023-04-19T00:22:33;9.60;99.90
52919;DHT22;38793;52.690;6.812;2023-04-19T00:24:59;9.60;99.90
52919;DHT22;38793;52.690;6.812;2023-04-19T00:27:25;9.60;99.90
52919;DHT22;38793;52.690;6.812;2023-04-19T00:29:51;9.60;99.90
52919;DHT22;38793;52.690;6.812;2023-04-19T00:32:16;9.60;99.90
52919;DHT22;38793;52.690;6.812;2023-04-19T00:34:42;9.60;99.90
52919;DHT22;38793;52.690;6.812;2023-04-19T00:37:08;9.60;99.90
52919;DHT22;38793;52.690;6.812;2023-04-19T00:39:34;9.60;99.90
52919;DHT22;38793;52.690;6.812;2023-04-19T00:41:59;9.60;99.90
52919;DHT22;38793;52.690;6.812;2023-04-19T00:44:25;9.60;99.90
52919;DHT22;38793;52.690;6.812;2023-04-19T00:46:51;9.60;99.90
52919;DHT22;38793;52.690;6.812;2023-04-19T00:49:19;9.60;99.90
52919;DHT22;38793;52.690;6.812;2023-04-19T00:51:45;9.60;99.90
52919;DHT22;38793;52.690;6.812;2023-04-19T00:54:12;9.60;99.90
52919;DHT22;38793;52.690;6.812;2023-04-19T00:56:39;9.60;99.90
52919;DHT22;38793;52.690;6.812;2023-04-19T00:59:05;9.60;99.90
52919;DHT22;38793;52.690;6.812;2023-04-19T01:01:31;9.60;99.90
52919;DHT22;38793;52.690;6.812;2023-04-19T01:03:57;9.60;99.90
52919;DHT22;38793;52.690;6.812;2023-04-19T01:06:23;9.60;99.90
52919;DHT22;38793;52.690;6.812;2023-04-19T01:08:52;9.60;99.90
52919;DHT22;38793;52.690;6.812;2023-04-19T01:11:18;9.60;99.90
52919;DHT22;38793;52.690;6.812;2023-04-19T01:13:43;9.60;99.90
52919;DHT22;38793;52.690;6.812;2023-04-19T01:16:09;9.60;99.90
52919;DHT22;38793;52.690;6.812;2023-04-19T01:18:35;9.60;99.90
52919;DHT22;38793;52.690;6.812;2023-04-19T01:21:02;9.60;99.90
52919;DHT22;38793;52.690;6.812;2023-04-19T01:23:28;9.60;99.90
52919;DHT22;38793;52.690;6.812;2023-04-19T01:25:54;9.60;99.90
52919;DHT22;38793;52.690;6.812;2023-04-19T01:28:20;9.60;99.90
52919;DHT22;38793;52.690;6.812;2023-04-19T01:30:46;9.60;99.90
52919;DHT22;38793;52.690;6.812;2023-04-19T01:33:11;9.60;99.90
52919;DHT22;38793;52.690;6.812;2023-04-19T01:35:37;9.60;99.90
52919;DHT22;38793;52.690;6.812;2023-04-19T01:38:02;9.60;99.90
52919;DHT22;38793;52.690;6.812;2023-04-19T01:40:29;9.60;99.90
52919;DHT22;38793;52.690;6.812;2023-04-19T01:42:55;9.50;99.90
52919;DHT22;38793;52.690;6.812;2023-04-19T01:45:24;9.50;99.90
52919;DHT22;38793;52.690;6.812;2023-04-19T01:47:50;9.50;99.90
52919;DHT22;38793;52.690;6.812;2023-04-19T01:50:16;9.50;99.90
52919;DHT22;38793;52.690;6.812;2023-04-19T01:52:41;9.50;99.90
52919;DHT22;38793;52.690;6.812;2023-04-19T01:55:07;9.50;99.90
52919;DHT22;38793;52.690;6.812;2023-04-19T01:57:33;9.50;99.90
52919;DHT22;38793;52.690;6.812;2023-04-19T01:59:59;9.50;99.90
52919;DHT22;38793;52.690;6.812;2023-04-19T02:02:25;9.50;99.90
52919;DHT22;38793;52.690;6.812;2023-04-19T02:04:51;9.40;99.90
52919;DHT22;38793;52.690;6.812;2023-04-19T02:07:16;9.40;99.90
52919;DHT22;38793;52.690;6.812;2023-04-19T02:09:42;9.40;99.90
52919;DHT22;38793;52.690;6.812;2023-04-19T02:12:08;9.40;99.90
52919;DHT22;38793;52.690;6.812;2023-04-19T02:14:34;9.40;99.90
52919;DHT22;38793;52.690;6.812;2023-04-19T02:16:59;9.40;99.90
52919;DHT22;38793;52.690;6.812;2023-04-19T02:19:25;9.40;99.90
52919;DHT22;38793;52.690;6.812;2023-04-19T02:21:50;9.40;99.90
52919;DHT22;38793;52.690;6.812;2023-04-19T02:24:17;9.30;99.90
52919;DHT22;38793;52.690;6.812;2023-04-19T02:26:43;9.30;99.90
52919;DHT22;38793;52.690;6.812;2023-04-19T02:29:09;9.30;99.90
52919;DHT22;38793;52.690;6.812;2023-04-19T02:31:35;9.30;99.90
52919;DHT22;38793;52.690;6.812;2023-04-19T02:34:01;9.30;99.90
52919;DHT22;38793;52.690;6.812;2023-04-19T02:36:26;9.30;99.90
52919;DHT22;38793;52.690;6.812;2023-04-19T02:38:52;9.30;99.90
52919;DHT22;38793;52.690;6.812;2023-04-19T02:41:18;9.30;99.90
52919;DHT22;38793;52.690;6.812;2023-04-19T02:43:43;9.30;99.90
52919;DHT22;38793;52.690;6.812;2023-04-19T02:46:09;9.30;99.90
52919;DHT22;38793;52.690;6.812;2023-04-19T02:48:34;9.30;99.90
52919;DHT22;38793;52.690;6.812;2023-04-19T02:51:00;9.20;99.90
52919;DHT22;38793;52.690;6.812;2023-04-19T02:53:26;9.20;99.90
52919;DHT22;38793;52.690;6.812;2023-04-19T02:55:51;9.20;99.90
52919;DHT22;38793;52.690;6.812;2023-04-19T02:58:17;9.20;99.90
52919;DHT22;38793;52.690;6.812;2023-04-19T03:00:43;9.20;99.90
52919;DHT22;38793;52.690;6.812;2023-04-19T03:03:08;9.20;99.90
52919;DHT22;38793;52.690;6.812;2023-04-19T03:05:34;9.10;99.90
52919;DHT22;38793;52.690;6.812;2023-04-19T03:08:00;9.10;99.90
52919;DHT22;38793;52.690;6.812;2023-04-19T03:10:25;9.10;99.90
52919;DHT22;38793;52.690;6.812;2023-04-19T03:12:51;9.10;99.90
52919;DHT22;38793;52.690;6.812;2023-04-19T03:15:17;9.10;99.90
52919;DHT22;38793;52.690;6.812;2023-04-19T03:17:43;9.10;99.90
52919;DHT22;38793;52.690;6.812;2023-04-19T03:20:08;9.10;99.90
52919;DHT22;38793;52.690;6.812;2023-04-19T03:22:36;9.00;99.90
52919;DHT22;38793;52.690;6.812;2023-04-19T03:25:02;9.00;99.90
52919;DHT22;38793;52.690;6.812;2023-04-19T03:27:28;9.00;99.90
52919;DHT22;38793;52.690;6.812;2023-04-19T03:29:55;9.00;99.90
52919;DHT22;38793;52.690;6.812;2023-04-19T03:32:20;8.90;99.90
52919;DHT22;38793;52.690;6.812;2023-04-19T03:34:46;8.80;99.90
52919;DHT22;38793;52.690;6.812;2023-04-19T03:37:12;8.80;99.90
52919;DHT22;38793;52.690;6.812;2023-04-19T03:39:37;8.70;99.90
52919;DHT22;38793;52.690;6.812;2023-04-19T03:42:03;8.70;99.90
52919;DHT22;38793;52.690;6.812;2023-04-19T03:44:31;8.60;99.90
52919;DHT22;38793;52.690;6.812;2023-04-19T03:46:57;8.60;99.90
52919;DHT22;38793;52.690;6.812;2023-04-19T03:49:23;8.50;99.90
52919;DHT22;38793;52.690;6.812;2023-04-19T03:51:49;8.40;99.90
52919;DHT22;38793;52.690;6.812;2023-04-19T03:54:14;8.30;99.90
52919;DHT22;38793;52.690;6.812;2023-04-19T03:56:40;8.30;99.90
52919;DHT22;38793;52.690;6.812;2023-04-19T03:59:06;8.20;99.90
52919;DHT22;38793;52.690;6.812;2023-04-19T04:01:32;8.20;99.90
52919;DHT22;38793;52.690;6.812;2023-04-19T04:03:57;8.10;99.90
52919;DHT22;38793;52.690;6.812;2023-04-19T04:06:23;8.00;99.90
52919;DHT22;38793;52.690;6.812;2023-04-19T04:08:48;8.00;99.90
52919;DHT22;38793;52.690;6.812;2023-04-19T04:11:14;7.90;99.90
52919;DHT22;38793;52.690;6.812;2023-04-19T04:13:40;7.80;99.90
52919;DHT22;38793;52.690;6.812;2023-04-19T04:16:05;7.80;99.90
52919;DHT22;38793;52.690;6.812;2023-04-19T04:18:31;7.70;99.90
52919;DHT22;38793;52.690;6.812;2023-04-19T04:20:56;7.70;99.90
52919;DHT22;38793;52.690;6.812;2023-04-19T04:23:22;7.60;99.90
52919;DHT22;38793;52.690;6.812;2023-04-19T04:25:59;7.60;99.90
52919;DHT22;38793;52.690;6.812;2023-04-19T04:28:26;7.60;99.90
52919;DHT22;38793;52.690;6.812;2023-04-19T04:30:52;7.50;99.90
52919;DHT22;38793;52.690;6.812;2023-04-19T04:33:18;7.60;99.90
52919;DHT22;38793;52.690;6.812;2023-04-19T04:35:43;7.50;99.90
52919;DHT22;38793;52.690;6.812;2023-04-19T04:38:09;7.50;99.90
52919;DHT22;38793;52.690;6.812;2023-04-19T04:40:35;7.50;99.90
52919;DHT22;38793;52.690;6.812;2023-04-19T04:43:00;7.40;99.90
52919;DHT22;38793;52.690;6.812;2023-04-19T04:45:28;7.40;99.90
52919;DHT22;38793;52.690;6.812;2023-04-19T04:47:54;7.40;99.90
52919;DHT22;38793;52.690;6.812;2023-04-19T04:50:20;7.30;99.90
52919;DHT22;38793;52.690;6.812;2023-04-19T04:52:45;7.30;99.90
52919;DHT22;38793;52.690;6.812;2023-04-19T04:55:11;7.30;99.90
52919;DHT22;38793;52.690;6.812;2023-04-19T04:57:37;7.20;99.90
52919;DHT22;38793;52.690;6.812;2023-04-19T05:00:04;7.30;99.90
52919;DHT22;38793;52.690;6.812;2023-04-19T05:02:31;7.20;99.90
52919;DHT22;38793;52.690;6.812;2023-04-19T05:04:56;7.20;99.90
52919;DHT22;38793;52.690;6.812;2023-04-19T05:07:22;7.20;99.90
52919;DHT22;38793;52.690;6.812;2023-04-19T05:09:48;7.20;99.90
52919;DHT22;38793;52.690;6.812;2023-04-19T05:12:13;7.20;99.90
52919;DHT22;38793;52.690;6.812;2023-04-19T05:14:39;7.20;99.90
52919;DHT22;38793;52.690;6.812;2023-04-19T05:17:05;7.20;99.90
52919;DHT22;38793;52.690;6.812;2023-04-19T05:19:30;7.20;99.90
52919;DHT22;38793;52.690;6.812;2023-04-19T05:21:56;7.20;99.90
52919;DHT22;38793;52.690;6.812;2023-04-19T05:24:21;7.20;99.90
52919;DHT22;38793;52.690;6.812;2023-04-19T05:26:47;7.30;99.90
52919;DHT22;38793;52.690;6.812;2023-04-19T05:29:13;7.30;99.90
52919;DHT22;38793;52.690;6.812;2023-04-19T05:31:38;7.30;99.90
52919;DHT22;38793;52.690;6.812;2023-04-19T05:34:04;7.30;99.90
52919;DHT22;38793;52.690;6.812;2023-04-19T05:36:29;7.30;99.90
52919;DHT22;38793;52.690;6.812;2023-04-19T05:38:56;7.40;99.90
52919;DHT22;38793;52.690;6.812;2023-04-19T05:41:22;7.40;99.90
52919;DHT22;38793;52.690;6.812;2023-04-19T05:43:48;7.40;99.90
52919;DHT22;38793;52.690;6.812;2023-04-19T05:46:13;7.50;99.90
52919;DHT22;38793;52.690;6.812;2023-04-19T05:48:39;7.50;99.90
52919;DHT22;38793;52.690;6.812;2023-04-19T05:51:05;7.60;99.90
52919;DHT22;38793;52.690;6.812;2023-04-19T05:53:30;7.60;99.90
52919;DHT22;38793;52.690;6.812;2023-04-19T05:55:56;7.70;99.90
52919;DHT22;38793;52.690;6.812;2023-04-19T05:58:22;7.70;99.90
52919;DHT22;38793;52.690;6.812;2023-04-19T06:00:48;7.80;99.90
52919;DHT22;38793;52.690;6.812;2023-04-19T06:03:14;7.90;99.90
52919;DHT22;38793;52.690;6.812;2023-04-19T06:05:39;7.90;99.90
52919;DHT22;38793;52.690;6.812;2023-04-19T06:08:05;8.00;99.90
52919;DHT22;38793;52.690;6.812;2023-04-19T06:10:31;8.20;99.90
52919;DHT22;38793;52.690;6.812;2023-04-19T06:12:57;8.20;99.90
52919;DHT22;38793;52.690;6.812;2023-04-19T06:15:22;8.30;99.90
52919;DHT22;38793;52.690;6.812;2023-04-19T06:17:50;8.40;99.90
52919;DHT22;38793;52.690;6.812;2023-04-19T06:20:15;8.40;99.90
52919;DHT22;38793;52.690;6.812;2023-04-19T06:22:43;8.40;99.90
52919;DHT22;38793;52.690;6.812;2023-04-19T06:25:09;8.50;99.90
52919;DHT22;38793;52.690;6.812;2023-04-19T06:27:35;8.60;99.90
52919;DHT22;38793;52.690;6.812;2023-04-19T06:30:00;8.60;99.90
52919;DHT22;38793;52.690;6.812;2023-04-19T06:32:26;8.70;99.90
52919;DHT22;38793;52.690;6.812;2023-04-19T06:34:51;8.80;99.90
52919;DHT22;38793;52.690;6.812;2023-04-19T06:37:17;8.80;99.90
52919;DHT22;38793;52.690;6.812;2023-04-19T06:39:43;8.90;99.90
52919;DHT22;38793;52.690;6.812;2023-04-19T06:42:08;9.00;99.90
52919;DHT22;38793;52.690;6.812;2023-04-19T06:44:34;9.00;99.90
52919;DHT22;38793;52.690;6.812;2023-04-19T06:46:59;9.10;99.90
52919;DHT22;38793;52.690;6.812;2023-04-19T06:49:25;9.20;99.90
52919;DHT22;38793;52.690;6.812;2023-04-19T06:51:50;9.20;99.90
52919;DHT22;38793;52.690;6.812;2023-04-19T06:54:16;9.30;99.90
52919;DHT22;38793;52.690;6.812;2023-04-19T06:56:44;9.30;99.50
52919;DHT22;38793;52.690;6.812;2023-04-19T06:59:14;9.40;99.50
52919;DHT22;38793;52.690;6.812;2023-04-19T07:01:41;9.50;99.60
52919;DHT22;38793;52.690;6.812;2023-04-19T07:04:07;9.60;98.80
52919;DHT22;38793;52.690;6.812;2023-04-19T07:06:37;9.60;98.90
52919;DHT22;38793;52.690;6.812;2023-04-19T07:09:03;9.70;98.40
52919;DHT22;38793;52.690;6.812;2023-04-19T07:11:30;9.80;98.30
52919;DHT22;38793;52.690;6.812;2023-04-19T07:13:56;9.80;98.00
52919;DHT22;38793;52.690;6.812;2023-04-19T07:16:22;9.90;98.70
52919;DHT22;38793;52.690;6.812;2023-04-19T07:18:47;9.90;98.20
52919;DHT22;38793;52.690;6.812;2023-04-19T07:21:14;9.90;98.00
52919;DHT22;38793;52.690;6.812;2023-04-19T07:23:39;10.00;97.90
52919;DHT22;38793;52.690;6.812;2023-04-19T07:26:05;10.00;97.60
52919;DHT22;38793;52.690;6.812;2023-04-19T07:28:32;10.10;97.60
52919;DHT22;38793;52.690;6.812;2023-04-19T07:30:58;10.20;97.90
52919;DHT22;38793;52.690;6.812;2023-04-19T07:33:25;10.20;97.00
52919;DHT22;38793;52.690;6.812;2023-04-19T07:35:52;10.30;96.30
52919;DHT22;38793;52.690;6.812;2023-04-19T07:38:18;10.30;96.10
52919;DHT22;38793;52.690;6.812;2023-04-19T07:40:44;10.30;95.80
52919;DHT22;38793;52.690;6.812;2023-04-19T07:43:10;10.30;96.30
52919;DHT22;38793;52.690;6.812;2023-04-19T07:45:36;10.30;96.10
52919;DHT22;38793;52.690;6.812;2023-04-19T07:48:01;10.40;95.50
52919;DHT22;38793;52.690;6.812;2023-04-19T07:50:27;10.50;95.30
52919;DHT22;38793;52.690;6.812;2023-04-19T07:52:53;10.50;95.20
52919;DHT22;38793;52.690;6.812;2023-04-19T07:55:19;10.60;95.80
52919;DHT22;38793;52.690;6.812;2023-04-19T07:57:45;10.60;95.30
52919;DHT22;38793;52.690;6.812;2023-04-19T08:00:16;10.70;94.80
52919;DHT22;38793;52.690;6.812;2023-04-19T08:02:43;10.80;94.40
52919;DHT22;38793;52.690;6.812;2023-04-19T08:05:09;10.90;94.70
52919;DHT22;38793;52.690;6.812;2023-04-19T08:07:35;11.00;94.90
52919;DHT22;38793;52.690;6.812;2023-04-19T08:10:01;11.00;94.00
52919;DHT22;38793;52.690;6.812;2023-04-19T08:12:27;11.10;93.80
52919;DHT22;38793;52.690;6.812;2023-04-19T08:14:52;11.20;92.90
52919;DHT22;38793;52.690;6.812;2023-04-19T08:17:18;11.20;93.10
52919;DHT22;38793;52.690;6.812;2023-04-19T08:19:46;11.30;92.50
52919;DHT22;38793;52.690;6.812;2023-04-19T08:22:16;11.40;92.80
52919;DHT22;38793;52.690;6.812;2023-04-19T08:24:43;11.30;91.10
52919;DHT22;38793;52.690;6.812;2023-04-19T08:27:09;11.40;92.00
52919;DHT22;38793;52.690;6.812;2023-04-19T08:29:35;11.50;91.30
52919;DHT22;38793;52.690;6.812;2023-04-19T08:32:01;11.50;91.60
52919;DHT22;38793;52.690;6.812;2023-04-19T08:34:27;11.50;92.10
52919;DHT22;38793;52.690;6.812;2023-04-19T08:36:52;11.60;92.00
52919;DHT22;38793;52.690;6.812;2023-04-19T08:39:18;11.60;91.50
52919;DHT22;38793;52.690;6.812;2023-04-19T08:41:44;11.70;91.40
52919;DHT22;38793;52.690;6.812;2023-04-19T08:44:13;11.80;91.70
52919;DHT22;38793;52.690;6.812;2023-04-19T08:46:41;11.80;90.30
52919;DHT22;38793;52.690;6.812;2023-04-19T08:49:08;11.80;90.10
52919;DHT22;38793;52.690;6.812;2023-04-19T08:51:35;11.90;90.80
52919;DHT22;38793;52.690;6.812;2023-04-19T08:54:06;12.00;89.90
52919;DHT22;38793;52.690;6.812;2023-04-19T08:56:32;12.10;87.60
52919;DHT22;38793;52.690;6.812;2023-04-19T08:58:58;12.20;87.20
52919;DHT22;38793;52.690;6.812;2023-04-19T09:01:24;12.20;86.10
52919;DHT22;38793;52.690;6.812;2023-04-19T09:03:49;12.20;84.70
52919;DHT22;38793;52.690;6.812;2023-04-19T09:06:15;12.30;85.80
52919;DHT22;38793;52.690;6.812;2023-04-19T09:08:41;12.40;87.00
52919;DHT22;38793;52.690;6.812;2023-04-19T09:11:07;12.40;85.00
52919;DHT22;38793;52.690;6.812;2023-04-19T09:13:33;12.50;83.80
52919;DHT22;38793;52.690;6.812;2023-04-19T09:16:01;12.60;77.80
52919;DHT22;38793;52.690;6.812;2023-04-19T09:18:29;12.50;77.70
52919;DHT22;38793;52.690;6.812;2023-04-19T09:20:55;12.60;78.50
52919;DHT22;38793;52.690;6.812;2023-04-19T09:23:25;12.60;78.30
52919;DHT22;38793;52.690;6.812;2023-04-19T09:25:58;12.70;80.00
52919;DHT22;38793;52.690;6.812;2023-04-19T09:28:27;12.80;79.70
52919;DHT22;38793;52.690;6.812;2023-04-19T09:30:54;12.90;78.70
52919;DHT22;38793;52.690;6.812;2023-04-19T09:33:37;13.10;78.60
52919;DHT22;38793;52.690;6.812;2023-04-19T09:36:04;13.20;78.40
52919;DHT22;38793;52.690;6.812;2023-04-19T09:38:46;13.30;77.50
52919;DHT22;38793;52.690;6.812;2023-04-19T09:41:12;13.40;77.40
52919;DHT22;38793;52.690;6.812;2023-04-19T09:43:37;13.50;77.20
52919;DHT22;38793;52.690;6.812;2023-04-19T09:46:03;13.50;77.70
52919;DHT22;38793;52.690;6.812;2023-04-19T09:48:29;13.50;74.90
52919;DHT22;38793;52.690;6.812;2023-04-19T09:50:55;13.50;76.10
52919;DHT22;38793;52.690;6.812;2023-04-19T09:53:22;13.60;76.50
52919;DHT22;38793;52.690;6.812;2023-04-19T09:55:48;13.60;78.10
52919;DHT22;38793;52.690;6.812;2023-04-19T09:58:15;13.70;76.30
52919;DHT22;38793;52.690;6.812;2023-04-19T10:00:43;13.80;77.20
52919;DHT22;38793;52.690;6.812;2023-04-19T10:03:09;13.90;75.90
52919;DHT22;38793;52.690;6.812;2023-04-19T10:05:37;14.00;75.10
52919;DHT22;38793;52.690;6.812;2023-04-19T10:08:06;14.00;75.30
52919;DHT22;38793;52.690;6.812;2023-04-19T10:10:32;14.10;74.80
52919;DHT22;38793;52.690;6.812;2023-04-19T10:12:58;14.10;74.40
52919;DHT22;38793;52.690;6.812;2023-04-19T10:15:25;14.10;73.20
52919;DHT22;38793;52.690;6.812;2023-04-19T10:17:52;14.10;74.10
52919;DHT22;38793;52.690;6.812;2023-04-19T10:20:36;14.10;72.30
52919;DHT22;38793;52.690;6.812;2023-04-19T10:23:06;14.20;71.90
52919;DHT22;38793;52.690;6.812;2023-04-19T10:25:36;14.30;72.00
52919;DHT22;38793;52.690;6.812;2023-04-19T10:28:02;14.40;72.20
52919;DHT22;38793;52.690;6.812;2023-04-19T10:30:27;14.50;70.90
52919;DHT22;38793;52.690;6.812;2023-04-19T10:32:55;14.60;69.00
52919;DHT22;38793;52.690;6.812;2023-04-19T10:35:24;14.70;68.10
52919;DHT22;38793;52.690;6.812;2023-04-19T10:43:32;14.90;64.40
52919;DHT22;38793;52.690;6.812;2023-04-19T10:46:16;15.00;64.80
52919;DHT22;38793;52.690;6.812;2023-04-19T10:49:01;15.00;65.70
52919;DHT22;38793;52.690;6.812;2023-04-19T10:51:35;15.10;66.10
52919;DHT22;38793;52.690;6.812;2023-04-19T10:54:03;15.20;64.30
52919;DHT22;38793;52.690;6.812;2023-04-19T11:01:43;15.30;62.90
52919;DHT22;38793;52.690;6.812;2023-04-19T11:04:13;15.20;62.00
52919;DHT22;38793;52.690;6.812;2023-04-19T11:11:53;15.40;61.90
52919;DHT22;38793;52.690;6.812;2023-04-19T11:14:22;15.40;60.90
52919;DHT22;38793;52.690;6.812;2023-04-19T11:16:48;15.40;60.60
52919;DHT22;38793;52.690;6.812;2023-04-19T11:19:18;15.50;60.40
52919;DHT22;38793;52.690;6.812;2023-04-19T11:21:47;15.50;61.70
52919;DHT22;38793;52.690;6.812;2023-04-19T11:24:14;15.60;62.00
52919;DHT22;38793;52.690;6.812;2023-04-19T11:26:43;15.60;62.20
52919;DHT22;38793;52.690;6.812;2023-04-19T11:29:10;15.70;61.20
52919;DHT22;38793;52.690;6.812;2023-04-19T11:31:36;15.70;60.90
52919;DHT22;38793;52.690;6.812;2023-04-19T11:34:02;15.80;61.70
52919;DHT22;38793;52.690;6.812;2023-04-19T11:36:28;15.80;61.80
52919;DHT22;38793;52.690;6.812;2023-04-19T11:38:53;15.80;63.00
52919;DHT22;38793;52.690;6.812;2023-04-19T11:41:19;15.80;61.70
52919;DHT22;38793;52.690;6.812;2023-04-19T11:43:45;15.70;61.00
52919;DHT22;38793;52.690;6.812;2023-04-19T11:46:11;15.70;60.40
52919;DHT22;38793;52.690;6.812;2023-04-19T11:48:38;15.70;60.30
52919;DHT22;38793;52.690;6.812;2023-04-19T11:51:04;15.60;61.60
52919;DHT22;38793;52.690;6.812;2023-04-19T11:53:31;15.70;61.90
52919;DHT22;38793;52.690;6.812;2023-04-19T11:56:03;15.70;61.40
52919;DHT22;38793;52.690;6.812;2023-04-19T11:58:32;15.80;61.60
52919;DHT22;38793;52.690;6.812;2023-04-19T12:01:05;15.90;61.50
52919;DHT22;38793;52.690;6.812;2023-04-19T12:03:33;15.80;61.20
52919;DHT22;38793;52.690;6.812;2023-04-19T12:06:00;15.90;62.10
52919;DHT22;38793;52.690;6.812;2023-04-19T12:08:34;16.00;62.60
52919;DHT22;38793;52.690;6.812;2023-04-19T12:11:01;16.10;62.70
52919;DHT22;38793;52.690;6.812;2023-04-19T12:13:28;16.10;62.50
52919;DHT22;38793;52.690;6.812;2023-04-19T12:15:55;16.10;62.50
52919;DHT22;38793;52.690;6.812;2023-04-19T12:18:21;16.00;62.20
52919;DHT22;38793;52.690;6.812;2023-04-19T12:20:48;16.10;64.70
52919;DHT22;38793;52.690;6.812;2023-04-19T12:23:14;16.20;63.20
52919;DHT22;38793;52.690;6.812;2023-04-19T12:25:42;16.20;63.20
52919;DHT22;38793;52.690;6.812;2023-04-19T12:28:08;16.20;63.40
52919;DHT22;38793;52.690;6.812;2023-04-19T12:30:37;16.20;63.10
52919;DHT22;38793;52.690;6.812;2023-04-19T12:33:03;16.20;63.10
52919;DHT22;38793;52.690;6.812;2023-04-19T12:35:29;16.30;64.40
52919;DHT22;38793;52.690;6.812;2023-04-19T12:37:56;16.40;63.40
52919;DHT22;38793;52.690;6.812;2023-04-19T12:40:23;16.40;64.00
52919;DHT22;38793;52.690;6.812;2023-04-19T12:42:49;16.40;63.40
52919;DHT22;38793;52.690;6.812;2023-04-19T12:45:16;16.50;63.50
52919;DHT22;38793;52.690;6.812;2023-04-19T12:47:43;16.50;63.70
52919;DHT22;38793;52.690;6.812;2023-04-19T12:50:09;16.60;63.00
52919;DHT22;38793;52.690;6.812;2023-04-19T12:52:35;16.50;62.00
52919;DHT22;38793;52.690;6.812;2023-04-19T12:55:01;16.50;63.30
52919;DHT22;38793;52.690;6.812;2023-04-19T12:57:27;16.40;61.90
52919;DHT22;38793;52.690;6.812;2023-04-19T12:59:52;16.50;63.70
52919;DHT22;38793;52.690;6.812;2023-04-19T13:02:18;16.50;63.30
52919;DHT22;38793;52.690;6.812;2023-04-19T13:04:43;16.60;63.10
52919;DHT22;38793;52.690;6.812;2023-04-19T13:07:09;16.60;64.20
52919;DHT22;38793;52.690;6.812;2023-04-19T13:09:35;16.70;64.80
52919;DHT22;38793;52.690;6.812;2023-04-19T13:12:00;16.80;63.40
52919;DHT22;38793;52.690;6.812;2023-04-19T13:14:26;16.70;62.90
52919;DHT22;38793;52.690;6.812;2023-04-19T13:16:52;16.70;65.00
52919;DHT22;38793;52.690;6.812;2023-04-19T13:19:18;16.80;65.10
52919;DHT22;38793;52.690;6.812;2023-04-19T13:21:44;16.80;64.60
52919;DHT22;38793;52.690;6.812;2023-04-19T13:24:09;16.80;65.10
52919;DHT22;38793;52.690;6.812;2023-04-19T13:26:35;16.90;64.50
52919;DHT22;38793;52.690;6.812;2023-04-19T13:29:01;16.90;63.60
52919;DHT22;38793;52.690;6.812;2023-04-19T13:31:27;16.90;63.70
52919;DHT22;38793;52.690;6.812;2023-04-19T13:33:53;16.90;62.70
52919;DHT22;38793;52.690;6.812;2023-04-19T13:36:18;16.90;62.20
52919;DHT22;38793;52.690;6.812;2023-04-19T13:38:44;16.90;62.40
52919;DHT22;38793;52.690;6.812;2023-04-19T13:41:10;16.80;62.60
52919;DHT22;38793;52.690;6.812;2023-04-19T13:43:36;16.80;62.40
52919;DHT22;38793;52.690;6.812;2023-04-19T13:46:01;16.90;63.60
52919;DHT22;38793;52.690;6.812;2023-04-19T13:48:27;17.00;62.30
52919;DHT22;38793;52.690;6.812;2023-04-19T13:50:54;16.90;61.70
52919;DHT22;38793;52.690;6.812;2023-04-19T13:53:19;17.00;62.80
52919;DHT22;38793;52.690;6.812;2023-04-19T13:55:45;17.10;63.60
52919;DHT22;38793;52.690;6.812;2023-04-19T13:58:11;17.10;63.80
52919;DHT22;38793;52.690;6.812;2023-04-19T14:00:36;17.20;63.50
52919;DHT22;38793;52.690;6.812;2023-04-19T14:03:02;17.10;61.30
52919;DHT22;38793;52.690;6.812;2023-04-19T14:05:28;17.10;61.30
52919;DHT22;38793;52.690;6.812;2023-04-19T14:07:54;17.10;61.10
52919;DHT22;38793;52.690;6.812;2023-04-19T14:10:19;17.10;61.70
52919;DHT22;38793;52.690;6.812;2023-04-19T14:12:46;17.20;61.80
52919;DHT22;38793;52.690;6.812;2023-04-19T14:15:11;17.10;61.70
52919;DHT22;38793;52.690;6.812;2023-04-19T14:17:38;17.10;61.80
52919;DHT22;38793;52.690;6.812;2023-04-19T14:20:04;17.10;61.60
52919;DHT22;38793;52.690;6.812;2023-04-19T14:22:31;17.10;61.10
52919;DHT22;38793;52.690;6.812;2023-04-19T14:24:56;17.00;60.50
52919;DHT22;38793;52.690;6.812;2023-04-19T14:27:22;16.80;60.80
52919;DHT22;38793;52.690;6.812;2023-04-19T14:29:48;16.70;60.20
52919;DHT22;38793;52.690;6.812;2023-04-19T14:32:14;16.60;60.90
52919;DHT22;38793;52.690;6.812;2023-04-19T14:34:40;16.60;60.20
52919;DHT22;38793;52.690;6.812;2023-04-19T14:37:06;16.60;60.40
52919;DHT22;38793;52.690;6.812;2023-04-19T14:39:31;16.60;60.10
52919;DHT22;38793;52.690;6.812;2023-04-19T14:41:57;16.60;61.20
52919;DHT22;38793;52.690;6.812;2023-04-19T14:44:22;16.70;62.70
52919;DHT22;38793;52.690;6.812;2023-04-19T14:46:48;16.70;61.20
52919;DHT22;38793;52.690;6.812;2023-04-19T14:49:14;16.70;60.90
52919;DHT22;38793;52.690;6.812;2023-04-19T14:51:39;16.60;60.90
52919;DHT22;38793;52.690;6.812;2023-04-19T14:54:05;16.70;62.30
52919;DHT22;38793;52.690;6.812;2023-04-19T14:56:30;16.70;62.00
52919;DHT22;38793;52.690;6.812;2023-04-19T14:58:56;16.70;61.80
52919;DHT22;38793;52.690;6.812;2023-04-19T15:01:22;16.60;60.00
52919;DHT22;38793;52.690;6.812;2023-04-19T15:03:48;16.60;60.10
52919;DHT22;38793;52.690;6.812;2023-04-19T15:06:14;16.50;59.80
52919;DHT22;38793;52.690;6.812;2023-04-19T15:08:40;16.40;60.10
52919;DHT22;38793;52.690;6.812;2023-04-19T15:11:08;16.30;60.80
52919;DHT22;38793;52.690;6.812;2023-04-19T15:13:33;16.40;60.60
52919;DHT22;38793;52.690;6.812;2023-04-19T15:16:00;16.30;59.50
52919;DHT22;38793;52.690;6.812;2023-04-19T15:18:28;16.20;60.80
52919;DHT22;38793;52.690;6.812;2023-04-19T15:20:54;16.00;59.60
52919;DHT22;38793;52.690;6.812;2023-04-19T15:23:22;16.00;60.60
52919;DHT22;38793;52.690;6.812;2023-04-19T15:25:47;16.00;61.60
52919;DHT22;38793;52.690;6.812;2023-04-19T15:28:14;16.00;60.70
52919;DHT22;38793;52.690;6.812;2023-04-19T15:30:40;16.00;59.10
52919;DHT22;38793;52.690;6.812;2023-04-19T15:33:05;16.00;58.60
52919;DHT22;38793;52.690;6.812;2023-04-19T15:35:31;15.90;57.90
52919;DHT22;38793;52.690;6.812;2023-04-19T15:37:57;15.80;58.50
52919;DHT22;38793;52.690;6.812;2023-04-19T15:40:23;15.80;58.80
52919;DHT22;38793;52.690;6.812;2023-04-19T15:42:49;15.80;58.30
52919;DHT22;38793;52.690;6.812;2023-04-19T15:45:15;15.80;57.60
52919;DHT22;38793;52.690;6.812;2023-04-19T15:47:41;15.80;55.70